Time;durP1;ratioP1;P1;durP2;ratioP2;P2;SDS_P1;SDS_P2;PMS_P1;PMS_P2;Temp;Humidity;BMP_temperature;BMP_pressure;BME280_temperature;BME280_humidity;BME280_pressure;Samples;Min_cycle;Max_cycle;Signal;HPM_P1;HPM_P2
2023/05/28 00:01:55;;;;;;;;;;;14.60;71.20;;;;;;5014622;28;19919;-85
2023/05/28 00:04:21;;;;;;;;;;;14.50;71.10;;;;;;5033133;28;20008;-85
2023/05/28 00:06:48;;;;;;;;;;;14.60;71.80;;;;;;5022444;28;19924;-86
2023/05/28 00:09:14;;;;;;;;;;;14.50;72.10;;;;;;5017765;28;19910;-86
2023/05/28 00:11:40;;;;;;;;;;;14.50;72.20;;;;;;5035039;28;20011;-86
2023/05/28 00:14:05;;;;;;;;;;;14.50;72.40;;;;;;5043700;28;19913;-86
2023/05/28 00:16:31;;;;;;;;;;;14.40;72.50;;;;;;5029390;28;20286;-86
2023/05/28 00:18:56;;;;;;;;;;;14.30;72.50;;;;;;5034762;28;19917;-86
2023/05/28 00:21:22;;;;;;;;;;;14.30;72.60;;;;;;5038662;28;19913;-85
2023/05/28 00:23:47;;;;;;;;;;;14.30;72.70;;;;;;5041792;28;19913;-85
2023/05/28 00:26:12;;;;;;;;;;;14.20;72.60;;;;;;5018442;28;19960;-85
2023/05/28 00:28:38;;;;;;;;;;;14.10;72.80;;;;;;5013877;28;19920;-86
2023/05/28 00:31:03;;;;;;;;;;;14.10;72.50;;;;;;5015752;28;19977;-86
2023/05/28 00:33:29;;;;;;;;;;;14.10;73.30;;;;;;5036804;28;20397;-85
2023/05/28 00:35:55;;;;;;;;;;;14.10;73.40;;;;;;5044546;28;20445;-86
2023/05/28 00:38:21;;;;;;;;;;;14.10;73.70;;;;;;5033374;28;19909;-85
2023/05/28 00:40:47;;;;;;;;;;;14.10;73.20;;;;;;5022827;28;19921;-86
2023/05/28 00:43:12;;;;;;;;;;;14.10;73.30;;;;;;5035228;28;19913;-86
2023/05/28 00:45:38;;;;;;;;;;;14.10;73.30;;;;;;5039000;28;19967;-86
2023/05/28 00:48:03;;;;;;;;;;;14.00;73.40;;;;;;5033794;28;20379;-86
2023/05/28 00:50:29;;;;;;;;;;;14.00;73.50;;;;;;5036527;28;19920;-86
2023/05/28 00:52:55;;;;;;;;;;;14.10;73.60;;;;;;5049494;28;20032;-86
2023/05/28 00:55:21;;;;;;;;;;;14.10;73.30;;;;;;5024523;28;20077;-86
2023/05/28 00:57:47;;;;;;;;;;;14.00;73.30;;;;;;5013208;28;20035;-85
2023/05/28 01:00:13;;;;;;;;;;;14.00;73.70;;;;;;5028565;28;19978;-86
2023/05/28 01:02:39;;;;;;;;;;;13.80;73.30;;;;;;5036527;28;19917;-87
2023/05/28 01:05:05;;;;;;;;;;;13.80;73.70;;;;;;5037336;28;19955;-86
2023/05/28 01:07:30;;;;;;;;;;;13.70;74.50;;;;;;5036764;28;19916;-86
2023/05/28 01:09:56;;;;;;;;;;;13.50;75.10;;;;;;5034610;28;19979;-85
2023/05/28 01:12:23;;;;;;;;;;;13.40;75.70;;;;;;5051032;28;20018;-86
2023/05/28 01:14:48;;;;;;;;;;;13.60;75.10;;;;;;5044317;28;19913;-85
2023/05/28 01:17:14;;;;;;;;;;;13.30;75.60;;;;;;5031107;28;19920;-85
2023/05/28 01:19:42;;;;;;;;;;;13.30;75.60;;;;;;5038337;28;19913;-86
2023/05/28 01:22:08;;;;;;;;;;;13.40;75.30;;;;;;5053874;28;19962;-85
2023/05/28 01:24:35;;;;;;;;;;;13.30;75.70;;;;;;5042633;28;19920;-85
2023/05/28 01:27:01;;;;;;;;;;;13.30;76.20;;;;;;5030306;28;19944;-85
2023/05/28 01:29:27;;;;;;;;;;;13.40;75.70;;;;;;5041525;28;19936;-85
2023/05/28 01:31:52;;;;;;;;;;;13.40;75.50;;;;;;5048913;28;19917;-85
2023/05/28 01:34:18;;;;;;;;;;;13.30;75.70;;;;;;5031674;28;20031;-85
2023/05/28 01:36:46;;;;;;;;;;;13.40;76.00;;;;;;5037800;28;20004;-85
2023/05/28 01:39:15;;;;;;;;;;;13.30;75.60;;;;;;5033168;28;19913;-85
2023/05/28 01:41:41;;;;;;;;;;;13.10;76.10;;;;;;5031009;28;19913;-85
2023/05/28 01:44:07;;;;;;;;;;;13.30;75.90;;;;;;5034241;28;19909;-85
2023/05/28 01:46:33;;;;;;;;;;;13.30;75.70;;;;;;5054490;28;20271;-85
2023/05/28 01:48:58;;;;;;;;;;;13.50;75.30;;;;;;5051637;28;19916;-85
2023/05/28 01:51:24;;;;;;;;;;;13.50;74.90;;;;;;5042698;28;19913;-85
2023/05/28 01:53:50;;;;;;;;;;;13.10;75.30;;;;;;5035916;28;19971;-85
2023/05/28 01:56:15;;;;;;;;;;;12.90;76.30;;;;;;5032243;28;19924;-85
2023/05/28 01:58:41;;;;;;;;;;;13.10;76.00;;;;;;5027243;28;20310;-85
2023/05/28 02:01:20;;;;;;;;;;;12.80;76.30;;;;;;5040806;28;20000;-86
2023/05/28 02:03:46;;;;;;;;;;;12.60;77.10;;;;;;5045617;28;19917;-85
2023/05/28 02:06:11;;;;;;;;;;;12.50;77.70;;;;;;5012794;28;19937;-85
2023/05/28 02:08:37;;;;;;;;;;;12.30;78.50;;;;;;5022506;28;20298;-85
2023/05/28 02:11:02;;;;;;;;;;;12.30;79.00;;;;;;5048246;28;19916;-85
2023/05/28 02:13:27;;;;;;;;;;;12.30;78.80;;;;;;5027089;28;19970;-85
2023/05/28 02:15:54;;;;;;;;;;;12.30;78.70;;;;;;5046612;28;19917;-85
2023/05/28 02:18:20;;;;;;;;;;;12.20;78.90;;;;;;5034172;28;20477;-85
2023/05/28 02:20:45;;;;;;;;;;;12.20;78.90;;;;;;5029981;28;19940;-85
2023/05/28 02:23:11;;;;;;;;;;;12.30;78.90;;;;;;5033151;28;19918;-85
2023/05/28 02:25:36;;;;;;;;;;;12.50;78.10;;;;;;5035460;28;20286;-85
2023/05/28 02:28:02;;;;;;;;;;;12.70;77.30;;;;;;5040099;28;19914;-85
2023/05/28 02:30:28;;;;;;;;;;;12.50;77.00;;;;;;5046518;28;19920;-85
2023/05/28 02:32:54;;;;;;;;;;;12.40;77.60;;;;;;5026770;28;19925;-86
2023/05/28 02:35:21;;;;;;;;;;;12.50;77.20;;;;;;5038175;28;19909;-85
2023/05/28 02:37:46;;;;;;;;;;;12.40;77.00;;;;;;5022125;28;19993;-85
2023/05/28 02:40:13;;;;;;;;;;;12.30;77.60;;;;;;5015514;28;20008;-85
2023/05/28 02:42:38;;;;;;;;;;;12.40;77.30;;;;;;5042123;28;20342;-85
2023/05/28 02:45:05;;;;;;;;;;;12.50;77.00;;;;;;5041850;28;19910;-85
2023/05/28 02:47:30;;;;;;;;;;;12.40;77.30;;;;;;5042396;28;20008;-86
2023/05/28 02:49:55;;;;;;;;;;;12.30;77.40;;;;;;5037458;28;20012;-85
2023/05/28 02:52:21;;;;;;;;;;;12.30;77.30;;;;;;5030688;28;19913;-85
2023/05/28 02:54:46;;;;;;;;;;;12.40;77.00;;;;;;5024034;28;19919;-86
2023/05/28 02:57:12;;;;;;;;;;;12.10;77.30;;;;;;5038695;28;19983;-87
2023/05/28 02:59:37;;;;;;;;;;;12.10;77.90;;;;;;5039323;28;19915;-86
2023/05/28 03:02:03;;;;;;;;;;;12.00;78.20;;;;;;5030715;28;19963;-85
2023/05/28 03:04:28;;;;;;;;;;;11.90;78.30;;;;;;5038623;28;20382;-85
2023/05/28 03:06:54;;;;;;;;;;;11.80;79.00;;;;;;5033410;28;19975;-85
2023/05/28 03:09:19;;;;;;;;;;;11.80;79.30;;;;;;5046375;28;19913;-85
2023/05/28 03:11:45;;;;;;;;;;;11.80;79.00;;;;;;5055460;28;19999;-86
2023/05/28 03:14:10;;;;;;;;;;;11.70;79.60;;;;;;5035066;28;20282;-85
2023/05/28 03:16:36;;;;;;;;;;;11.80;78.80;;;;;;5024547;28;19920;-85
2023/05/28 03:19:02;;;;;;;;;;;11.80;78.90;;;;;;5035211;28;19913;-85
2023/05/28 03:21:27;;;;;;;;;;;11.80;79.30;;;;;;5050796;28;19938;-85
2023/05/28 03:23:53;;;;;;;;;;;11.90;78.70;;;;;;5043839;28;20358;-85
2023/05/28 03:26:18;;;;;;;;;;;12.00;78.30;;;;;;5039728;28;20343;-85
2023/05/28 03:28:44;;;;;;;;;;;11.90;78.30;;;;;;5043720;28;20298;-85
2023/05/28 03:31:11;;;;;;;;;;;11.70;79.00;;;;;;5033683;28;19913;-85
2023/05/28 03:33:36;;;;;;;;;;;11.70;79.50;;;;;;5047301;28;19916;-85
2023/05/28 03:36:02;;;;;;;;;;;11.60;79.60;;;;;;5042002;28;20390;-85
2023/05/28 03:38:28;;;;;;;;;;;11.70;79.90;;;;;;5035817;28;19909;-85
2023/05/28 03:40:53;;;;;;;;;;;11.60;80.10;;;;;;5023177;28;19913;-85
2023/05/28 03:43:19;;;;;;;;;;;11.60;80.60;;;;;;5059797;28;19924;-85
2023/05/28 03:45:44;;;;;;;;;;;11.70;80.70;;;;;;5048840;28;19920;-85
2023/05/28 03:48:10;;;;;;;;;;;11.80;80.40;;;;;;5038198;28;19920;-85
2023/05/28 03:50:36;;;;;;;;;;;11.80;79.70;;;;;;5054026;28;20381;-85
2023/05/28 03:53:01;;;;;;;;;;;11.80;79.30;;;;;;5055489;28;19913;-85
2023/05/28 03:55:27;;;;;;;;;;;12.00;78.70;;;;;;5042058;28;19967;-85
2023/05/28 03:57:52;;;;;;;;;;;11.80;78.50;;;;;;5038717;28;19920;-86
2023/05/28 04:00:18;;;;;;;;;;;11.90;78.60;;;;;;5042238;28;19940;-85
2023/05/28 04:02:43;;;;;;;;;;;11.70;78.80;;;;;;5034807;28;19920;-84
2023/05/28 04:05:09;;;;;;;;;;;11.80;78.60;;;;;;5040468;28;19924;-85
2023/05/28 04:07:35;;;;;;;;;;;11.70;79.10;;;;;;5045009;28;20020;-85
2023/05/28 04:10:00;;;;;;;;;;;11.70;79.40;;;;;;5027461;28;20007;-85
2023/05/28 04:12:26;;;;;;;;;;;11.60;79.40;;;;;;5054178;28;20286;-85
2023/05/28 04:14:51;;;;;;;;;;;11.50;80.00;;;;;;5025239;28;19913;-85
2023/05/28 04:17:18;;;;;;;;;;;11.70;79.80;;;;;;5034246;28;19944;-85
2023/05/28 04:19:44;;;;;;;;;;;11.70;79.90;;;;;;5030651;28;19935;-85
2023/05/28 04:22:09;;;;;;;;;;;11.70;80.10;;;;;;5036231;28;19912;-85
2023/05/28 04:24:35;;;;;;;;;;;11.60;80.20;;;;;;5032823;28;19916;-85
2023/05/28 04:27:00;;;;;;;;;;;11.60;80.50;;;;;;5023650;28;19913;-86
2023/05/28 04:29:29;;;;;;;;;;;11.50;81.10;;;;;;5029741;28;19996;-85
2023/05/28 04:31:55;;;;;;;;;;;11.50;81.20;;;;;;5024789;28;20360;-84
2023/05/28 04:34:21;;;;;;;;;;;11.60;81.10;;;;;;5036871;28;20008;-85
2023/05/28 04:36:48;;;;;;;;;;;11.70;80.90;;;;;;5033349;28;19913;-85
2023/05/28 04:39:14;;;;;;;;;;;11.80;80.90;;;;;;5024319;28;19964;-85
2023/05/28 04:41:40;;;;;;;;;;;11.90;80.90;;;;;;5036276;28;19917;-85
2023/05/28 04:44:05;;;;;;;;;;;11.90;80.30;;;;;;5032817;28;19920;-85
2023/05/28 04:46:30;;;;;;;;;;;12.10;80.30;;;;;;5052723;28;19916;-85
2023/05/28 04:48:57;;;;;;;;;;;12.10;80.10;;;;;;5017238;28;20484;-85
2023/05/28 04:51:23;;;;;;;;;;;12.10;80.60;;;;;;5044987;28;20298;-85
2023/05/28 04:53:48;;;;;;;;;;;12.30;80.40;;;;;;5018143;28;19917;-85
2023/05/28 04:56:14;;;;;;;;;;;12.40;79.50;;;;;;5032343;23;19941;-84
2023/05/28 04:58:39;;;;;;;;;;;12.40;79.40;;;;;;5002292;28;19914;-85
2023/05/28 05:01:07;;;;;;;;;;;12.50;79.30;;;;;;5033468;28;19958;-84
2023/05/28 05:03:32;;;;;;;;;;;12.60;79.30;;;;;;5010077;28;19917;-85
2023/05/28 05:05:58;;;;;;;;;;;12.80;78.80;;;;;;5015717;28;19920;-84
2023/05/28 05:08:23;;;;;;;;;;;12.90;78.00;;;;;;5049206;28;20295;-85
2023/05/28 05:10:49;;;;;;;;;;;13.00;77.90;;;;;;5034786;28;19917;-85
2023/05/28 05:13:15;;;;;;;;;;;12.90;77.80;;;;;;5032825;28;19925;-85
2023/05/28 05:15:40;;;;;;;;;;;13.10;77.30;;;;;;5051532;28;19914;-85
2023/05/28 05:18:06;;;;;;;;;;;13.20;77.20;;;;;;5029657;28;19913;-85
2023/05/28 05:20:31;;;;;;;;;;;13.40;77.00;;;;;;5032653;28;19933;-86
2023/05/28 05:22:57;;;;;;;;;;;13.30;76.90;;;;;;5033595;28;19913;-86
2023/05/28 05:25:22;;;;;;;;;;;13.40;77.90;;;;;;5030646;28;19945;-84
2023/05/28 05:27:51;;;;;;;;;;;13.40;78.10;;;;;;5032296;28;19920;-84
2023/05/28 05:30:16;;;;;;;;;;;13.60;78.10;;;;;;5032530;28;19909;-85
2023/05/28 05:32:42;;;;;;;;;;;13.60;77.80;;;;;;5032833;28;19921;-85
2023/05/28 05:35:08;;;;;;;;;;;13.80;78.20;;;;;;5031367;28;19910;-85
2023/05/28 05:37:33;;;;;;;;;;;13.80;78.00;;;;;;5030506;28;19956;-84
2023/05/28 05:39:59;;;;;;;;;;;13.80;77.60;;;;;;5030966;28;19915;-85
2023/05/28 05:42:24;;;;;;;;;;;14.00;77.30;;;;;;5046496;28;19921;-84
2023/05/28 05:44:50;;;;;;;;;;;14.10;76.60;;;;;;5031501;28;19932;-85
2023/05/28 05:47:16;;;;;;;;;;;14.20;76.50;;;;;;5032675;28;19913;-85
2023/05/28 05:49:41;;;;;;;;;;;14.20;75.40;;;;;;5030217;28;19978;-86
2023/05/28 05:52:07;;;;;;;;;;;14.50;74.80;;;;;;5049651;28;19921;-86
2023/05/28 05:54:32;;;;;;;;;;;14.50;75.00;;;;;;5030998;28;19925;-85
2023/05/28 05:56:59;;;;;;;;;;;14.50;75.40;;;;;;5029783;28;19924;-85
2023/05/28 05:59:24;;;;;;;;;;;14.50;75.90;;;;;;5023597;28;19931;-85
2023/05/28 06:01:49;;;;;;;;;;;14.50;75.40;;;;;;5035385;28;19995;-85
2023/05/28 06:04:15;;;;;;;;;;;14.50;75.30;;;;;;5055353;28;19991;-84
2023/05/28 06:06:40;;;;;;;;;;;14.40;74.20;;;;;;5033926;28;20294;-86
2023/05/28 06:09:06;;;;;;;;;;;14.50;73.30;;;;;;5032627;28;19936;-85
2023/05/28 06:11:32;;;;;;;;;;;14.50;73.80;;;;;;5031365;28;19917;-85
2023/05/28 06:13:58;;;;;;;;;;;14.40;73.20;;;;;;5032181;28;19917;-84
2023/05/28 06:16:24;;;;;;;;;;;14.40;72.60;;;;;;5046797;28;20424;-85
2023/05/28 06:18:50;;;;;;;;;;;14.30;73.40;;;;;;5045384;28;19913;-85
2023/05/28 06:21:16;;;;;;;;;;;14.40;73.90;;;;;;5046956;28;19913;-86
2023/05/28 06:23:42;;;;;;;;;;;14.50;72.80;;;;;;5031395;28;19914;-85
2023/05/28 06:26:07;;;;;;;;;;;14.50;72.80;;;;;;5029403;28;19909;-85
2023/05/28 06:28:33;;;;;;;;;;;14.50;73.60;;;;;;5029017;28;20268;-84
2023/05/28 06:30:58;;;;;;;;;;;14.50;74.30;;;;;;5031604;28;19990;-85
2023/05/28 06:33:24;;;;;;;;;;;14.60;75.40;;;;;;5032212;28;19917;-85
2023/05/28 06:35:50;;;;;;;;;;;14.70;74.70;;;;;;5031740;28;19971;-85
2023/05/28 06:38:15;;;;;;;;;;;14.70;74.30;;;;;;5031477;28;19905;-85
2023/05/28 06:40:41;;;;;;;;;;;14.80;73.90;;;;;;5042370;28;19913;-85
2023/05/28 06:43:06;;;;;;;;;;;14.90;74.00;;;;;;5031355;28;19913;-86
2023/05/28 06:45:32;;;;;;;;;;;15.00;73.50;;;;;;5036855;28;20402;-86
2023/05/28 06:48:03;;;;;;;;;;;15.00;73.10;;;;;;5065759;28;19975;-87
2023/05/28 06:50:32;;;;;;;;;;;15.10;73.20;;;;;;5038347;28;20004;-85
2023/05/28 06:53:00;;;;;;;;;;;15.10;72.40;;;;;;5033130;28;19921;-86
2023/05/28 06:58:32;;;;;;;;;;;15.30;71.80;;;;;;5032858;28;19924;-88
2023/05/28 07:00:58;;;;;;;;;;;15.30;71.40;;;;;;5031818;28;20371;-84
2023/05/28 07:03:29;;;;;;;;;;;15.40;73.10;;;;;;5031923;28;19913;-85
2023/05/28 07:05:54;;;;;;;;;;;15.40;73.30;;;;;;5027912;28;19920;-84
2023/05/28 07:08:23;;;;;;;;;;;15.30;72.50;;;;;;5040198;28;19936;-83
2023/05/28 07:10:49;;;;;;;;;;;15.30;71.70;;;;;;5037043;28;19916;-84
2023/05/28 07:13:14;;;;;;;;;;;15.50;72.70;;;;;;5047704;28;20347;-86
2023/05/28 07:15:40;;;;;;;;;;;15.50;70.50;;;;;;5044088;28;20357;-86
2023/05/28 07:18:14;;;;;;;;;;;15.60;70.70;;;;;;5036853;28;21884;-86
2023/05/28 07:20:40;;;;;;;;;;;15.60;71.10;;;;;;5030441;28;19913;-85
2023/05/28 07:23:17;;;;;;;;;;;15.70;70.70;;;;;;5027568;28;20008;-84
2023/05/28 07:25:50;;;;;;;;;;;15.80;70.20;;;;;;5043556;28;19913;-86
2023/05/28 07:28:25;;;;;;;;;;;15.90;68.60;;;;;;5029742;28;19959;-85
2023/05/28 07:30:51;;;;;;;;;;;16.10;67.90;;;;;;5027335;28;19924;-85
2023/05/28 07:33:16;;;;;;;;;;;16.10;67.90;;;;;;5050000;28;19913;-84
2023/05/28 07:35:42;;;;;;;;;;;16.10;66.00;;;;;;5028390;28;20001;-82
2023/05/28 07:38:11;;;;;;;;;;;16.20;66.00;;;;;;5029014;28;19913;-84
2023/05/28 07:40:43;;;;;;;;;;;16.20;65.70;;;;;;5032935;28;19913;-83
2023/05/28 07:43:13;;;;;;;;;;;16.10;67.10;;;;;;5032591;28;19920;-83
2023/05/28 07:45:39;;;;;;;;;;;16.10;67.60;;;;;;5047213;28;19940;-84
2023/05/28 07:48:05;;;;;;;;;;;16.20;67.40;;;;;;5030352;28;19909;-84
2023/05/28 07:50:30;;;;;;;;;;;16.40;67.90;;;;;;5033077;28;19913;-84
2023/05/28 07:52:56;;;;;;;;;;;16.50;65.40;;;;;;5026388;28;20420;-83
2023/05/28 07:55:24;;;;;;;;;;;16.60;65.20;;;;;;5031128;28;19947;-83
2023/05/28 07:57:49;;;;;;;;;;;16.60;66.20;;;;;;5035339;28;19917;-84
2023/05/28 08:00:16;;;;;;;;;;;16.80;63.60;;;;;;5035728;28;19917;-84
2023/05/28 08:02:43;;;;;;;;;;;16.90;63.80;;;;;;5030191;28;19913;-82
2023/05/28 08:05:08;;;;;;;;;;;17.00;65.10;;;;;;5032351;28;20403;-83
2023/05/28 08:07:34;;;;;;;;;;;17.10;63.40;;;;;;5035444;28;19913;-83
2023/05/28 08:09:59;;;;;;;;;;;17.10;63.30;;;;;;5030713;28;20333;-85
2023/05/28 08:12:25;;;;;;;;;;;17.30;61.40;;;;;;5034694;28;20386;-82
2023/05/28 08:14:51;;;;;;;;;;;17.40;61.30;;;;;;5037064;28;19931;-84
2023/05/28 08:17:18;;;;;;;;;;;17.50;61.40;;;;;;5048404;28;19921;-83
2023/05/28 08:19:49;;;;;;;;;;;17.40;63.40;;;;;;5031357;28;19929;-82
2023/05/28 08:22:14;;;;;;;;;;;17.40;62.40;;;;;;5040192;28;19928;-83
2023/05/28 08:24:39;;;;;;;;;;;17.60;63.30;;;;;;5023999;28;20642;-83
2023/05/28 08:27:08;;;;;;;;;;;17.60;63.40;;;;;;5031948;28;19917;-83
2023/05/28 08:29:34;;;;;;;;;;;17.70;62.50;;;;;;5030753;28;19914;-83
2023/05/28 08:32:00;;;;;;;;;;;17.80;59.70;;;;;;5051084;28;19924;-84
2023/05/28 08:34:26;;;;;;;;;;;18.10;57.70;;;;;;5027813;28;19924;-84
2023/05/28 08:36:52;;;;;;;;;;;18.10;58.60;;;;;;5038987;22;19925;-81
2023/05/28 08:39:17;;;;;;;;;;;18.00;59.30;;;;;;5029844;28;19983;-81
2023/05/28 08:41:43;;;;;;;;;;;18.00;59.40;;;;;;5018346;28;19917;-80
2023/05/28 08:44:09;;;;;;;;;;;18.10;60.00;;;;;;5016691;28;20283;-81
2023/05/28 08:46:35;;;;;;;;;;;18.10;58.80;;;;;;5016426;28;19919;-79
2023/05/28 08:49:01;;;;;;;;;;;18.30;57.60;;;;;;5014956;28;19914;-79
2023/05/28 08:51:27;;;;;;;;;;;18.30;59.70;;;;;;5015462;28;19992;-81
2023/05/28 08:53:55;;;;;;;;;;;18.40;59.30;;;;;;5024087;28;19921;-79
2023/05/28 08:56:21;;;;;;;;;;;18.50;60.00;;;;;;5008782;28;19914;-79
2023/05/28 08:58:46;;;;;;;;;;;18.60;58.90;;;;;;5028980;28;19917;-81
2023/05/28 09:01:12;;;;;;;;;;;18.60;59.50;;;;;;5012995;28;20265;-82
2023/05/28 09:03:41;;;;;;;;;;;18.80;59.50;;;;;;5003215;28;19914;-80
2023/05/28 09:06:07;;;;;;;;;;;19.00;59.30;;;;;;5006360;28;19933;-79
2023/05/28 09:08:33;;;;;;;;;;;19.00;57.50;;;;;;5011648;28;20487;-82
2023/05/28 09:11:08;;;;;;;;;;;18.90;55.80;;;;;;5006498;28;19987;-82
2023/05/28 09:13:34;;;;;;;;;;;19.00;57.20;;;;;;5024021;28;19924;-81
2023/05/28 09:16:00;;;;;;;;;;;19.10;57.70;;;;;;5006001;28;20368;-80
2023/05/28 09:18:27;;;;;;;;;;;19.10;58.00;;;;;;5004233;28;20207;-80
2023/05/28 09:20:58;;;;;;;;;;;19.20;57.60;;;;;;5009102;28;19956;-81
2023/05/28 09:23:28;;;;;;;;;;;19.20;55.50;;;;;;5007465;28;20392;-82
2023/05/28 09:26:00;;;;;;;;;;;19.40;54.20;;;;;;5008641;28;19921;-81
2023/05/28 09:28:27;;;;;;;;;;;19.50;54.70;;;;;;5002776;28;19914;-80
2023/05/28 09:31:01;;;;;;;;;;;19.40;55.10;;;;;;5001252;28;20365;-81
2023/05/28 09:33:27;;;;;;;;;;;19.50;55.90;;;;;;5006537;28;20385;-81
2023/05/28 09:35:59;;;;;;;;;;;19.50;53.30;;;;;;5002534;28;19914;-80
2023/05/28 09:38:26;;;;;;;;;;;19.50;53.20;;;;;;5006778;28;19923;-81
2023/05/28 09:40:53;;;;;;;;;;;19.60;54.50;;;;;;5011080;28;20305;-81
2023/05/28 09:43:26;;;;;;;;;;;19.60;55.50;;;;;;5012081;28;19909;-81
2023/05/28 09:45:52;;;;;;;;;;;19.70;56.80;;;;;;5014968;28;19920;-81
2023/05/28 09:48:17;;;;;;;;;;;19.80;57.50;;;;;;5002783;28;20325;-81
2023/05/28 09:50:43;;;;;;;;;;;20.00;55.00;;;;;;5018163;28;19918;-80
2023/05/28 09:55:44;;;;;;;;;;;19.90;55.30;;;;;;5032169;28;19925;-80
2023/05/28 09:58:11;;;;;;;;;;;20.10;56.40;;;;;;5018691;28;19996;-81
2023/05/28 10:00:40;;;;;;;;;;;20.10;54.60;;;;;;5037621;28;19945;-82
2023/05/28 10:03:12;;;;;;;;;;;20.10;53.10;;;;;;5014815;28;19978;-81
2023/05/28 10:05:40;;;;;;;;;;;20.10;51.10;;;;;;5010001;28;19920;-79
2023/05/28 10:08:07;;;;;;;;;;;20.10;51.10;;;;;;5013705;28;20270;-81
2023/05/28 10:10:33;;;;;;;;;;;20.10;53.30;;;;;;5017119;28;19917;-82
2023/05/28 10:12:58;;;;;;;;;;;20.30;53.10;;;;;;5027022;28;19948;-82
2023/05/28 10:15:24;;;;;;;;;;;20.20;54.00;;;;;;5020066;28;19913;-80
2023/05/28 10:17:53;;;;;;;;;;;20.30;53.80;;;;;;5023234;28;20278;-82
2023/05/28 10:20:18;;;;;;;;;;;20.40;52.70;;;;;;5053985;28;19940;-82
2023/05/28 10:22:44;;;;;;;;;;;20.50;54.50;;;;;;5012880;28;19920;-82
2023/05/28 10:25:10;;;;;;;;;;;20.50;52.00;;;;;;5012915;28;19935;-81
2023/05/28 10:27:37;;;;;;;;;;;20.50;52.10;;;;;;5010900;28;19917;-82
2023/05/28 10:30:04;;;;;;;;;;;20.80;50.50;;;;;;5037887;28;19970;-82
2023/05/28 10:32:29;;;;;;;;;;;20.80;50.20;;;;;;5015118;28;19913;-82
2023/05/28 10:35:02;;;;;;;;;;;20.80;50.10;;;;;;5033519;28;19931;-81
2023/05/28 10:37:27;;;;;;;;;;;20.80;49.30;;;;;;5015660;28;19974;-80
2023/05/28 10:39:53;;;;;;;;;;;20.90;48.70;;;;;;5058525;28;20293;-80
2023/05/28 10:42:21;;;;;;;;;;;20.90;54.20;;;;;;5031954;28;19919;-81
2023/05/28 10:44:49;;;;;;;;;;;21.10;50.80;;;;;;5047832;28;19928;-80
2023/05/28 10:47:16;;;;;;;;;;;21.00;50.70;;;;;;5032985;28;19916;-81
2023/05/28 10:50:09;;;;;;;;;;;20.80;50.30;;;;;;5017638;28;19913;-82
2023/05/28 10:52:36;;;;;;;;;;;21.00;47.90;;;;;;5010062;28;19917;-80
2023/05/28 10:55:03;;;;;;;;;;;20.90;49.10;;;;;;5022388;28;19925;-81
2023/05/28 10:57:39;;;;;;;;;;;21.00;48.50;;;;;;5044351;22;19971;-86
2023/05/28 11:00:11;;;;;;;;;;;21.00;47.80;;;;;;5026270;28;20424;-84
2023/05/28 11:02:36;;;;;;;;;;;21.10;47.10;;;;;;5027834;28;19913;-82
2023/05/28 11:05:03;;;;;;;;;;;21.00;48.50;;;;;;5030457;28;19914;-83
2023/05/28 11:07:38;;;;;;;;;;;21.10;50.00;;;;;;5027693;28;19917;-83
2023/05/28 11:10:11;;;;;;;;;;;21.20;48.50;;;;;;5028373;28;20019;-85
2023/05/28 11:12:37;;;;;;;;;;;21.20;49.80;;;;;;5026171;28;19914;-86
2023/05/28 11:15:04;;;;;;;;;;;21.30;49.40;;;;;;5027750;28;19917;-84
2023/05/28 11:17:32;;;;;;;;;;;21.30;47.10;;;;;;5030088;28;19975;-84
2023/05/28 11:19:58;;;;;;;;;;;21.20;47.20;;;;;;5025808;28;19913;-85
2023/05/28 11:22:32;;;;;;;;;;;21.30;48.30;;;;;;5025103;28;19913;-85
2023/05/28 11:24:59;;;;;;;;;;;21.60;46.30;;;;;;5033678;28;19913;-85
2023/05/28 11:27:25;;;;;;;;;;;21.80;47.30;;;;;;5033812;28;19913;-84
2023/05/28 11:29:53;;;;;;;;;;;21.90;45.70;;;;;;5034419;28;19976;-84
2023/05/28 11:32:21;;;;;;;;;;;21.90;45.60;;;;;;5034200;28;20401;-83
2023/05/28 11:34:50;;;;;;;;;;;21.90;45.30;;;;;;5037171;28;19917;-84
2023/05/28 11:37:16;;;;;;;;;;;21.90;45.90;;;;;;5037430;28;19913;-84
2023/05/28 11:39:49;;;;;;;;;;;22.10;46.20;;;;;;5036440;28;19936;-85
2023/05/28 11:42:14;;;;;;;;;;;21.80;45.30;;;;;;5037239;28;19917;-83
2023/05/28 11:44:44;;;;;;;;;;;21.90;45.80;;;;;;5031813;28;19921;-84
2023/05/28 11:47:09;;;;;;;;;;;21.70;47.90;;;;;;5031744;28;19917;-84
2023/05/28 11:49:36;;;;;;;;;;;21.60;47.10;;;;;;5032800;28;19913;-84
2023/05/28 11:52:02;;;;;;;;;;;21.50;46.60;;;;;;5034701;28;19936;-85
2023/05/28 11:54:27;;;;;;;;;;;21.20;48.50;;;;;;5045342;28;20375;-84
2023/05/28 11:56:52;;;;;;;;;;;21.10;48.00;;;;;;5038838;28;20298;-84
2023/05/28 11:59:20;;;;;;;;;;;21.10;46.50;;;;;;5037318;28;20359;-85
2023/05/28 12:01:45;;;;;;;;;;;21.30;48.00;;;;;;5030506;28;19917;-84
2023/05/28 12:04:11;;;;;;;;;;;21.30;46.50;;;;;;5032902;28;19917;-84
2023/05/28 12:06:53;;;;;;;;;;;21.50;47.50;;;;;;5028230;28;19939;-84
2023/05/28 12:09:18;;;;;;;;;;;21.50;45.70;;;;;;5034680;28;19920;-84
2023/05/28 12:11:44;;;;;;;;;;;21.70;46.30;;;;;;5032184;28;19917;-85
2023/05/28 12:14:10;;;;;;;;;;;21.80;46.50;;;;;;5028819;28;19967;-85
2023/05/28 12:16:44;;;;;;;;;;;21.80;46.40;;;;;;5032583;28;19913;-82
2023/05/28 12:19:15;;;;;;;;;;;21.70;45.90;;;;;;5035294;28;19921;-85
2023/05/28 12:21:41;;;;;;;;;;;21.80;45.90;;;;;;5036581;28;19940;-85
2023/05/28 12:24:15;;;;;;;;;;;21.90;45.10;;;;;;5034108;28;19917;-83
2023/05/28 12:26:41;;;;;;;;;;;21.90;44.60;;;;;;5035377;28;19920;-83
2023/05/28 12:29:06;;;;;;;;;;;22.00;45.80;;;;;;5037014;28;19913;-84
2023/05/28 12:31:32;;;;;;;;;;;22.10;44.50;;;;;;5036773;28;19917;-84
2023/05/28 12:33:58;;;;;;;;;;;22.00;45.30;;;;;;5040997;28;19940;-83
2023/05/28 12:36:23;;;;;;;;;;;22.00;45.40;;;;;;5036291;28;19999;-83
2023/05/28 12:38:49;;;;;;;;;;;22.00;45.90;;;;;;5036088;28;21687;-82
2023/05/28 12:41:14;;;;;;;;;;;22.00;48.50;;;;;;5044479;28;21239;-82
2023/05/28 12:43:40;;;;;;;;;;;22.00;45.70;;;;;;5030745;28;20379;-83
2023/05/28 12:46:05;;;;;;;;;;;22.00;45.70;;;;;;5028738;28;19920;-83
2023/05/28 12:48:31;;;;;;;;;;;22.00;44.80;;;;;;5026680;28;19959;-83
2023/05/28 12:50:56;;;;;;;;;;;22.20;46.10;;;;;;5035229;28;19913;-83
2023/05/28 12:53:22;;;;;;;;;;;22.10;43.40;;;;;;5033887;28;19917;-85
2023/05/28 12:55:47;;;;;;;;;;;22.20;45.00;;;;;;5034475;28;19963;-84
2023/05/28 12:58:15;;;;;;;;;;;22.20;43.90;;;;;;5031251;28;19925;-83
2023/05/28 13:00:41;;;;;;;;;;;22.00;45.50;;;;;;5028970;28;20394;-85
2023/05/28 13:03:07;;;;;;;;;;;22.00;44.10;;;;;;5031017;28;19913;-83
2023/05/28 13:05:33;;;;;;;;;;;22.10;44.60;;;;;;5033462;28;19917;-84
2023/05/28 13:08:00;;;;;;;;;;;22.10;44.20;;;;;;5033739;28;19927;-83
2023/05/28 13:10:25;;;;;;;;;;;22.00;44.90;;;;;;5031685;28;19967;-85
2023/05/28 13:12:51;;;;;;;;;;;22.20;43.40;;;;;;5030029;28;19917;-85
2023/05/28 13:15:17;;;;;;;;;;;22.30;43.60;;;;;;5028474;28;19940;-85
2023/05/28 13:17:43;;;;;;;;;;;22.50;43.50;;;;;;5038221;28;19948;-85
2023/05/28 13:20:10;;;;;;;;;;;22.50;43.30;;;;;;5028787;28;19920;-84
2023/05/28 13:22:36;;;;;;;;;;;22.40;42.30;;;;;;5032742;28;19913;-84
2023/05/28 13:25:05;;;;;;;;;;;22.30;43.00;;;;;;5029132;28;19920;-84
2023/05/28 13:27:31;;;;;;;;;;;22.20;44.60;;;;;;5032536;28;19920;-84
2023/05/28 13:29:57;;;;;;;;;;;22.30;42.90;;;;;;5027938;28;20363;-84
2023/05/28 13:32:22;;;;;;;;;;;22.30;43.80;;;;;;5034127;28;19913;-83
2023/05/28 13:34:47;;;;;;;;;;;22.40;47.70;;;;;;5028810;28;19924;-84
2023/05/28 13:37:13;;;;;;;;;;;22.40;44.50;;;;;;5030572;28;19913;-85
2023/05/28 13:39:38;;;;;;;;;;;22.40;45.60;;;;;;5027172;28;20032;-84
2023/05/28 13:42:04;;;;;;;;;;;22.50;48.30;;;;;;5032124;28;19928;-84
2023/05/28 13:44:29;;;;;;;;;;;22.50;45.20;;;;;;5031626;28;20390;-84
2023/05/28 13:46:55;;;;;;;;;;;22.50;46.10;;;;;;5030490;28;19914;-83
2023/05/28 13:49:20;;;;;;;;;;;22.60;44.50;;;;;;5026709;28;19917;-83
2023/05/28 13:51:46;;;;;;;;;;;22.50;41.60;;;;;;5028310;28;19913;-84
2023/05/28 13:54:12;;;;;;;;;;;22.50;42.50;;;;;;5031903;28;19917;-84
2023/05/28 13:58:26;;;;;;;;;;;22.50;42.50;;;;;;5092039;27;1901415;-83
2023/05/28 14:00:52;;;;;;;;;;;22.60;41.20;;;;;;5145406;27;19912;-82
2023/05/28 14:03:17;;;;;;;;;;;22.80;43.10;;;;;;5133296;27;19919;-81
2023/05/28 14:05:47;;;;;;;;;;;23.00;42.70;;;;;;5140776;27;19925;-81
2023/05/28 14:08:13;;;;;;;;;;;23.00;43.70;;;;;;5122652;27;19919;-82
2023/05/28 14:10:38;;;;;;;;;;;23.00;43.20;;;;;;5148473;27;19975;-81
2023/05/28 14:13:04;;;;;;;;;;;23.00;42.90;;;;;;5162823;27;19927;-83
2023/05/28 14:15:29;;;;;;;;;;;23.00;43.20;;;;;;5158800;27;19918;-82
2023/05/28 14:17:55;;;;;;;;;;;22.90;42.60;;;;;;5157155;27;20302;-82
2023/05/28 14:20:20;;;;;;;;;;;22.80;43.30;;;;;;5148472;27;19919;-81